»·PEaware :: DHL102 KSAN-KSFO

DHL102 :: KSAN-KSFO

FLIGHT INFORMATION

Flight Status: Arrived
Operator:
Astar Air Cargo
More flights by this operator :: More flights under this callsign
Pilot: Cole F. (14495)
Aircraft: BOEING 727-200
(B722)
More flights by this aircraft type
Origin: KSAN San Diego Intl-Lindbergh
United States
Destination: KSFO San Francisco Intl
United States
More flights between these airports :: More routes between these airports
Route: PEBLE6 SXC VTU RZS J501 BSR BSR3
File this flight plan on PilotEdge
Remarks:
Altitude:
(Current/Filed)
32,000ft
Speed:
(Current/Filed)
492kts
Departed: 10-Aug-18 07:23 AM
Arrived: 10-Aug-18 08:30 AM
Distance/Time
Traveled:
389nm/1:07
Distance/Time
To Go:
Arrived

Flight Plot

Page will automatically refresh every two minutes.


Map Options




Map Legend


Flown Route
Filed Route
Departure Airport
Arrival Airport
Navaid (VOR, NDB)
Fix

Horizontal Profiles

Position Reports

Time Latitude Longitude Heading Altitude Ground
Speed
10-Aug-18 07:00 32.735177 -117.183640 55 29ft 0kts
10-Aug-18 07:01 32.735177 -117.183641 55 29ft 0kts
10-Aug-18 07:02 32.735177 -117.183641 55 29ft 0kts
10-Aug-18 07:03 32.735177 -117.183641 55 29ft 0kts
10-Aug-18 07:04 32.735177 -117.183641 55 29ft 0kts
10-Aug-18 07:05 32.735177 -117.183641 55 29ft 0kts
10-Aug-18 07:06 32.735177 -117.183641 55 29ft 0kts
10-Aug-18 07:07 32.735177 -117.183641 55 29ft 0kts
10-Aug-18 07:08 32.735177 -117.183641 55 29ft 0kts
10-Aug-18 07:09 32.735177 -117.183641 55 29ft 0kts
10-Aug-18 07:10 32.735177 -117.183641 55 29ft 0kts
10-Aug-18 07:11 32.735176 -117.183641 55 29ft 0kts
10-Aug-18 07:12 32.734929 -117.184222 107 29ft 2kts
10-Aug-18 07:13 32.735073 -117.184421 145 29ft 0kts
10-Aug-18 07:14 32.735073 -117.184421 145 29ft 0kts
10-Aug-18 07:15 32.735073 -117.184421 145 29ft 0kts
10-Aug-18 07:16 32.735073 -117.184421 145 29ft 0kts
10-Aug-18 07:17 32.734727 -117.184125 143 29ft 7kts
10-Aug-18 07:18 32.733652 -117.183995 175 29ft 10kts
10-Aug-18 07:19 32.732264 -117.179599 105 29ft 14kts
10-Aug-18 07:20 32.731185 -117.175944 114 29ft 0kts
10-Aug-18 07:21 32.731185 -117.175945 114 29ft 0kts
10-Aug-18 07:22 32.731185 -117.175945 114 29ft 0kts
10-Aug-18 07:23 32.731184 -117.175941 114 29ft 0kts
10-Aug-18 07:24 32.730886 -117.178671 285 29ft 70kts
10-Aug-18 07:25 32.748130 -117.221688 309 1668ft 164kts
10-Aug-18 07:26 32.781226 -117.258472 331 3791ft 181kts
10-Aug-18 07:27 32.837872 -117.296909 318 4662ft 279kts
10-Aug-18 07:28 32.880787 -117.374899 308 7833ft 290kts
10-Aug-18 07:29 32.931064 -117.452678 308 10633ft 305kts
10-Aug-18 07:30 32.984227 -117.533973 310 13167ft 318kts
10-Aug-18 07:31 33.040724 -117.620547 310 15038ft 347kts
10-Aug-18 07:32 33.101376 -117.715094 309 16706ft 374kts
10-Aug-18 07:33 33.163792 -117.810561 309 18847ft 381kts
10-Aug-18 07:34 33.210347 -117.922796 267 20691ft 393kts
10-Aug-18 07:35 33.239951 -118.041307 310 22331ft 393kts
10-Aug-18 07:36 33.315107 -118.137239 310 23784ft 400kts
10-Aug-18 07:37 33.382993 -118.243922 316 25057ft 405kts
10-Aug-18 07:38 33.469060 -118.331108 319 26494ft 410kts
10-Aug-18 07:39 33.553968 -118.422968 318 27974ft 415kts
10-Aug-18 07:40 33.639646 -118.517379 318 29334ft 421kts
10-Aug-18 07:41 33.726225 -118.613313 318 30484ft 428kts
10-Aug-18 07:42 33.812418 -118.710740 317 31491ft 435kts
10-Aug-18 07:43 33.901583 -118.810954 317 32068ft 449kts
10-Aug-18 07:44 33.993830 -118.914311 317 32048ft 459kts
10-Aug-18 07:45 34.087813 -119.019800 317 32046ft 468kts
10-Aug-18 07:46 34.160142 -119.145123 304 32056ft 469kts
10-Aug-18 07:47 34.233515 -119.276336 304 32044ft 477kts
10-Aug-18 07:48 34.308484 -119.409576 304 32047ft 483kts
10-Aug-18 07:49 34.382818 -119.542179 304 32055ft 488kts
10-Aug-18 07:50 34.458676 -119.678635 302 32056ft 492kts
10-Aug-18 07:51 34.538192 -119.813876 313 32064ft 493kts
10-Aug-18 07:52 34.639785 -119.925394 318 32073ft 496kts
10-Aug-18 07:53 34.744027 -120.034533 318 32073ft 498kts
10-Aug-18 07:54 34.847931 -120.145992 317 32072ft 498kts
10-Aug-18 07:55 34.949004 -120.260904 316 32081ft 498kts
10-Aug-18 07:56 35.050503 -120.375823 316 32081ft 499kts
10-Aug-18 07:57 35.147220 -120.485156 316 32063ft 500kts
10-Aug-18 07:58 35.248773 -120.600531 313 32053ft 500kts
10-Aug-18 07:59 35.317756 -120.743060 310 32075ft 493kts
10-Aug-18 08:00 35.418369 -120.857864 318 32065ft 497kts
10-Aug-18 08:01 35.523386 -120.967718 317 32081ft 497kts
10-Aug-18 08:02 35.634637 -121.068545 322 32083ft 498kts
10-Aug-18 08:03 35.743236 -121.164460 324 33018ft 481kts
10-Aug-18 08:04 35.863037 -121.234425 344 31662ft 491kts
10-Aug-18 08:05 35.966380 -121.338877 309 29143ft 494kts
10-Aug-18 08:06 36.055533 -121.467233 312 25752ft 493kts
10-Aug-18 08:07 36.143710 -121.589166 312 22460ft 491kts
10-Aug-18 08:09 36.318401 -121.775758 322 20078ft 359kts
10-Aug-18 08:10 36.399355 -121.850850 322 18827ft 370kts
10-Aug-18 08:11 36.488158 -121.918755 345 16712ft 383kts
10-Aug-18 08:12 36.587634 -121.936703 355 13880ft 344kts
10-Aug-18 08:13 36.683810 -121.950912 348 11130ft 355kts
10-Aug-18 08:14 36.772773 -121.971666 347 12009ft 302kts
10-Aug-18 08:15 36.855105 -121.992649 346 12029ft 304kts
10-Aug-18 08:16 36.937936 -122.014225 346 11403ft 301kts
10-Aug-18 08:17 37.018599 -122.035402 346 10031ft 291kts
10-Aug-18 08:18 37.096131 -122.055835 346 10005ft 287kts
10-Aug-18 08:19 37.171243 -122.075559 346 9713ft 290kts
10-Aug-18 08:20 37.249732 -122.096309 346 8851ft 279kts
10-Aug-18 08:21 37.306829 -122.111408 346 8421ft 242kts
10-Aug-18 08:22 37.383110 -122.092152 13 7306ft 232kts
10-Aug-18 08:23 37.438094 -122.073274 13 6097ft 200kts
10-Aug-18 08:24 37.478032 -122.088234 323 4715ft 184kts
10-Aug-18 08:25 37.511848 -122.128813 306 3939ft 160kts
10-Aug-18 08:26 37.541755 -122.190565 296 3037ft 182kts
10-Aug-18 08:27 37.558878 -122.233090 298 2241ft 149kts
10-Aug-18 08:28 37.578111 -122.279282 299 1440ft 140kts
10-Aug-18 08:29 37.596559 -122.322439 299 603ft 134kts
10-Aug-18 08:30 37.613753 -122.363174 298 26ft 123kts
10-Aug-18 08:31 37.621872 -122.382492 305 25ft 18kts
10-Aug-18 08:32 37.624899 -122.381269 2 25ft 11kts
10-Aug-18 08:33 37.627026 -122.385589 298 25ft 17kts
10-Aug-18 08:34 37.629244 -122.390886 297 25ft 17kts
10-Aug-18 08:35 37.632000 -122.391428 17 25ft 11kts
10-Aug-18 08:36 37.634320 -122.389609 76 25ft 14kts
10-Aug-18 08:37 37.636135 -122.387690 59 25ft 2kts
10-Aug-18 08:38 37.636157 -122.387643 59 25ft 0kts
10-Aug-18 08:39 37.636157 -122.387643 59 25ft 0kts

Navigation Log

Ident Type
Flight plan parsing failed, navigation log unavailable